sensor_id;sensor_type;location;lat;lon;timestamp;pressure;altitude;pressure_sealevel;temperature
22828;BMP180;11580;52.562;13.418;2023-06-14T00:02:20;100950.00;;;17.20
22828;BMP180;11580;52.562;13.418;2023-06-14T00:04:48;100952.00;;;17.20
22828;BMP180;11580;52.562;13.418;2023-06-14T00:07:20;100946.00;;;17.20
22828;BMP180;11580;52.562;13.418;2023-06-14T00:09:49;100947.00;;;17.10
22828;BMP180;11580;52.562;13.418;2023-06-14T00:12:16;100949.00;;;17.10
22828;BMP180;11580;52.562;13.418;2023-06-14T00:14:44;100959.00;;;17.10
22828;BMP180;11580;52.562;13.418;2023-06-14T00:17:11;100959.00;;;17.10
22828;BMP180;11580;52.562;13.418;2023-06-14T00:19:38;100952.00;;;17.10
22828;BMP180;11580;52.562;13.418;2023-06-14T00:22:06;100963.00;;;17.10
22828;BMP180;11580;52.562;13.418;2023-06-14T00:24:34;100957.00;;;17.00
22828;BMP180;11580;52.562;13.418;2023-06-14T00:27:01;100957.00;;;17.00
22828;BMP180;11580;52.562;13.418;2023-06-14T00:29:29;100962.00;;;17.00
22828;BMP180;11580;52.562;13.418;2023-06-14T00:31:56;100962.00;;;17.00
22828;BMP180;11580;52.562;13.418;2023-06-14T00:34:26;100956.00;;;16.90
22828;BMP180;11580;52.562;13.418;2023-06-14T00:36:53;100954.00;;;16.90
22828;BMP180;11580;52.562;13.418;2023-06-14T00:39:20;100959.00;;;16.90
22828;BMP180;11580;52.562;13.418;2023-06-14T00:41:49;100960.00;;;16.90
22828;BMP180;11580;52.562;13.418;2023-06-14T00:44:17;100953.00;;;16.90
22828;BMP180;11580;52.562;13.418;2023-06-14T00:46:45;100958.00;;;16.80
22828;BMP180;11580;52.562;13.418;2023-06-14T00:49:14;100959.00;;;16.80
22828;BMP180;11580;52.562;13.418;2023-06-14T00:51:43;100955.00;;;16.80
22828;BMP180;11580;52.562;13.418;2023-06-14T00:54:10;100963.00;;;16.60
22828;BMP180;11580;52.562;13.418;2023-06-14T00:56:38;100957.00;;;16.70
22828;BMP180;11580;52.562;13.418;2023-06-14T00:59:07;100953.00;;;16.70
22828;BMP180;11580;52.562;13.418;2023-06-14T01:01:35;100953.00;;;16.60
22828;BMP180;11580;52.562;13.418;2023-06-14T01:04:03;100944.00;;;16.60
22828;BMP180;11580;52.562;13.418;2023-06-14T01:06:36;100950.00;;;16.60
22828;BMP180;11580;52.562;13.418;2023-06-14T01:09:18;100955.00;;;16.60
22828;BMP180;11580;52.562;13.418;2023-06-14T01:11:59;100947.00;;;16.50
22828;BMP180;11580;52.562;13.418;2023-06-14T01:14:30;100951.00;;;16.50
22828;BMP180;11580;52.562;13.418;2023-06-14T01:16:58;100953.00;;;16.50
22828;BMP180;11580;52.562;13.418;2023-06-14T01:19:27;100951.00;;;16.50
22828;BMP180;11580;52.562;13.418;2023-06-14T01:21:55;100953.00;;;16.50
22828;BMP180;11580;52.562;13.418;2023-06-14T01:24:24;100954.00;;;16.50
22828;BMP180;11580;52.562;13.418;2023-06-14T01:26:59;100951.00;;;16.40
22828;BMP180;11580;52.562;13.418;2023-06-14T01:29:28;100953.00;;;16.40
22828;BMP180;11580;52.562;13.418;2023-06-14T01:31:59;100952.00;;;16.40
22828;BMP180;11580;52.562;13.418;2023-06-14T01:34:30;100956.00;;;16.40
22828;BMP180;11580;52.562;13.418;2023-06-14T01:37:01;100941.00;;;16.40
22828;BMP180;11580;52.562;13.418;2023-06-14T01:39:31;100950.00;;;16.20
22828;BMP180;11580;52.562;13.418;2023-06-14T01:42:00;100943.00;;;16.30
22828;BMP180;11580;52.562;13.418;2023-06-14T01:44:28;100950.00;;;16.30
22828;BMP180;11580;52.562;13.418;2023-06-14T01:46:56;100947.00;;;16.30
22828;BMP180;11580;52.562;13.418;2023-06-14T01:49:24;100943.00;;;16.20
22828;BMP180;11580;52.562;13.418;2023-06-14T01:51:53;100944.00;;;16.20
22828;BMP180;11580;52.562;13.418;2023-06-14T01:54:20;100947.00;;;16.20
22828;BMP180;11580;52.562;13.418;2023-06-14T01:56:49;100950.00;;;16.20
22828;BMP180;11580;52.562;13.418;2023-06-14T01:59:16;100949.00;;;16.20
22828;BMP180;11580;52.562;13.418;2023-06-14T02:01:43;100944.00;;;16.10
22828;BMP180;11580;52.562;13.418;2023-06-14T02:04:12;100945.00;;;16.10
22828;BMP180;11580;52.562;13.418;2023-06-14T02:06:39;100954.00;;;16.10
22828;BMP180;11580;52.562;13.418;2023-06-14T02:09:06;100958.00;;;16.10
22828;BMP180;11580;52.562;13.418;2023-06-14T02:11:33;100963.00;;;16.10
22828;BMP180;11580;52.562;13.418;2023-06-14T02:14:02;100966.00;;;16.00
22828;BMP180;11580;52.562;13.418;2023-06-14T02:16:29;100954.00;;;16.00
22828;BMP180;11580;52.562;13.418;2023-06-14T02:18:56;100967.00;;;16.00
22828;BMP180;11580;52.562;13.418;2023-06-14T02:21:23;100965.00;;;15.90
22828;BMP180;11580;52.562;13.418;2023-06-14T02:23:51;100962.00;;;15.90
22828;BMP180;11580;52.562;13.418;2023-06-14T02:26:18;100957.00;;;15.90
22828;BMP180;11580;52.562;13.418;2023-06-14T02:28:45;100957.00;;;15.90
22828;BMP180;11580;52.562;13.418;2023-06-14T02:31:13;100951.00;;;15.80
22828;BMP180;11580;52.562;13.418;2023-06-14T02:33:42;100955.00;;;15.80
22828;BMP180;11580;52.562;13.418;2023-06-14T02:36:09;100953.00;;;15.80
22828;BMP180;11580;52.562;13.418;2023-06-14T02:38:36;100954.00;;;15.80
22828;BMP180;11580;52.562;13.418;2023-06-14T02:41:03;100951.00;;;15.80
22828;BMP180;11580;52.562;13.418;2023-06-14T02:43:31;100954.00;;;15.80
22828;BMP180;11580;52.562;13.418;2023-06-14T02:45:59;100954.00;;;15.80
22828;BMP180;11580;52.562;13.418;2023-06-14T02:48:28;100965.00;;;15.80
22828;BMP180;11580;52.562;13.418;2023-06-14T02:50:55;100966.00;;;15.80
22828;BMP180;11580;52.562;13.418;2023-06-14T02:53:22;100962.00;;;15.80
22828;BMP180;11580;52.562;13.418;2023-06-14T02:55:50;100963.00;;;15.80
22828;BMP180;11580;52.562;13.418;2023-06-14T02:58:18;100961.00;;;15.80
22828;BMP180;11580;52.562;13.418;2023-06-14T03:00:45;100954.00;;;15.80
22828;BMP180;11580;52.562;13.418;2023-06-14T03:03:13;100951.00;;;15.80
22828;BMP180;11580;52.562;13.418;2023-06-14T03:05:50;100952.00;;;15.80
22828;BMP180;11580;52.562;13.418;2023-06-14T03:08:22;100944.00;;;15.80
22828;BMP180;11580;52.562;13.418;2023-06-14T03:10:53;100945.00;;;15.90
22828;BMP180;11580;52.562;13.418;2023-06-14T03:13:22;100943.00;;;15.90
22828;BMP180;11580;52.562;13.418;2023-06-14T03:15:51;100938.00;;;15.90
22828;BMP180;11580;52.562;13.418;2023-06-14T03:18:20;100949.00;;;16.00
22828;BMP180;11580;52.562;13.418;2023-06-14T03:20:52;100951.00;;;16.00
22828;BMP180;11580;52.562;13.418;2023-06-14T03:23:20;100942.00;;;16.20
22828;BMP180;11580;52.562;13.418;2023-06-14T03:25:47;100955.00;;;16.40
22828;BMP180;11580;52.562;13.418;2023-06-14T03:28:14;100952.00;;;16.60
22828;BMP180;11580;52.562;13.418;2023-06-14T03:30:42;100955.00;;;16.80
22828;BMP180;11580;52.562;13.418;2023-06-14T03:33:10;100953.00;;;16.90
22828;BMP180;11580;52.562;13.418;2023-06-14T03:35:39;100958.00;;;17.00
22828;BMP180;11580;52.562;13.418;2023-06-14T03:38:09;100962.00;;;17.10
22828;BMP180;11580;52.562;13.418;2023-06-14T03:40:36;100965.00;;;17.20
22828;BMP180;11580;52.562;13.418;2023-06-14T03:43:05;100971.00;;;17.50
22828;BMP180;11580;52.562;13.418;2023-06-14T03:45:33;100972.00;;;17.90
22828;BMP180;11580;52.562;13.418;2023-06-14T03:48:00;100977.00;;;18.40
22828;BMP180;11580;52.562;13.418;2023-06-14T03:50:30;100986.00;;;19.00
22828;BMP180;11580;52.562;13.418;2023-06-14T03:52:58;100983.00;;;19.60
22828;BMP180;11580;52.562;13.418;2023-06-14T03:55:28;100985.00;;;20.20
22828;BMP180;11580;52.562;13.418;2023-06-14T03:57:57;100995.00;;;20.70
22828;BMP180;11580;52.562;13.418;2023-06-14T04:00:25;100999.00;;;21.20
22828;BMP180;11580;52.562;13.418;2023-06-14T04:02:53;101004.00;;;21.70
22828;BMP180;11580;52.562;13.418;2023-06-14T04:05:20;101004.00;;;22.20
22828;BMP180;11580;52.562;13.418;2023-06-14T04:07:49;101017.00;;;22.70
22828;BMP180;11580;52.562;13.418;2023-06-14T04:10:17;100998.00;;;23.00
22828;BMP180;11580;52.562;13.418;2023-06-14T04:12:47;101022.00;;;23.30
22828;BMP180;11580;52.562;13.418;2023-06-14T04:15:14;101030.00;;;23.60
22828;BMP180;11580;52.562;13.418;2023-06-14T04:17:41;101025.00;;;23.90
22828;BMP180;11580;52.562;13.418;2023-06-14T04:20:09;101025.00;;;24.20
22828;BMP180;11580;52.562;13.418;2023-06-14T04:22:37;101032.00;;;24.60
22828;BMP180;11580;52.562;13.418;2023-06-14T04:25:06;101031.00;;;24.90
22828;BMP180;11580;52.562;13.418;2023-06-14T04:27:34;101035.00;;;25.10
22828;BMP180;11580;52.562;13.418;2023-06-14T04:30:05;101042.00;;;25.40
22828;BMP180;11580;52.562;13.418;2023-06-14T04:32:37;101042.00;;;25.70
22828;BMP180;11580;52.562;13.418;2023-06-14T04:35:07;101043.00;;;25.90
22828;BMP180;11580;52.562;13.418;2023-06-14T04:37:37;101045.00;;;26.20
22828;BMP180;11580;52.562;13.418;2023-06-14T04:40:11;101041.00;;;26.60
22828;BMP180;11580;52.562;13.418;2023-06-14T04:42:39;101044.00;;;26.90
22828;BMP180;11580;52.562;13.418;2023-06-14T04:45:09;101044.00;;;27.20
22828;BMP180;11580;52.562;13.418;2023-06-14T04:47:38;101042.00;;;27.50
22828;BMP180;11580;52.562;13.418;2023-06-14T04:50:07;101051.00;;;27.70
22828;BMP180;11580;52.562;13.418;2023-06-14T04:52:34;101056.00;;;27.80
22828;BMP180;11580;52.562;13.418;2023-06-14T04:55:05;101061.00;;;27.80
22828;BMP180;11580;52.562;13.418;2023-06-14T04:57:32;101058.00;;;27.70
22828;BMP180;11580;52.562;13.418;2023-06-14T05:00:01;101056.00;;;27.50
22828;BMP180;11580;52.562;13.418;2023-06-14T05:02:33;101055.00;;;27.30
22828;BMP180;11580;52.562;13.418;2023-06-14T05:05:01;101060.00;;;27.10
22828;BMP180;11580;52.562;13.418;2023-06-14T05:07:28;101053.00;;;27.00
22828;BMP180;11580;52.562;13.418;2023-06-14T05:09:57;101055.00;;;26.80
22828;BMP180;11580;52.562;13.418;2023-06-14T05:12:25;101053.00;;;26.50
22828;BMP180;11580;52.562;13.418;2023-06-14T05:14:52;101056.00;;;26.10
22828;BMP180;11580;52.562;13.418;2023-06-14T05:17:21;101053.00;;;25.80
22828;BMP180;11580;52.562;13.418;2023-06-14T05:19:49;101042.00;;;25.30
22828;BMP180;11580;52.562;13.418;2023-06-14T05:22:17;101049.00;;;24.90
22828;BMP180;11580;52.562;13.418;2023-06-14T05:24:44;101059.00;;;24.50
22828;BMP180;11580;52.562;13.418;2023-06-14T05:27:13;101060.00;;;24.10
22828;BMP180;11580;52.562;13.418;2023-06-14T05:29:40;101061.00;;;23.80
22828;BMP180;11580;52.562;13.418;2023-06-14T05:32:08;101066.00;;;23.60
22828;BMP180;11580;52.562;13.418;2023-06-14T05:34:35;101061.00;;;23.40
22828;BMP180;11580;52.562;13.418;2023-06-14T05:37:04;101053.00;;;23.30
22828;BMP180;11580;52.562;13.418;2023-06-14T05:39:32;101061.00;;;23.10
22828;BMP180;11580;52.562;13.418;2023-06-14T05:41:59;101062.00;;;23.00
22828;BMP180;11580;52.562;13.418;2023-06-14T05:44:26;101067.00;;;22.80
22828;BMP180;11580;52.562;13.418;2023-06-14T05:46:53;101069.00;;;22.70
22828;BMP180;11580;52.562;13.418;2023-06-14T05:49:20;101062.00;;;22.40
22828;BMP180;11580;52.562;13.418;2023-06-14T05:51:48;101061.00;;;22.30
22828;BMP180;11580;52.562;13.418;2023-06-14T05:54:16;101069.00;;;22.10
22828;BMP180;11580;52.562;13.418;2023-06-14T05:56:43;101078.00;;;22.00
22828;BMP180;11580;52.562;13.418;2023-06-14T05:59:10;101072.00;;;21.90
22828;BMP180;11580;52.562;13.418;2023-06-14T06:01:38;101076.00;;;21.80
22828;BMP180;11580;52.562;13.418;2023-06-14T06:04:06;101079.00;;;21.80
22828;BMP180;11580;52.562;13.418;2023-06-14T06:06:33;101078.00;;;21.80
22828;BMP180;11580;52.562;13.418;2023-06-14T06:09:01;101081.00;;;21.70
22828;BMP180;11580;52.562;13.418;2023-06-14T06:11:30;101078.00;;;21.60
22828;BMP180;11580;52.562;13.418;2023-06-14T06:13:57;101068.00;;;21.50
22828;BMP180;11580;52.562;13.418;2023-06-14T06:16:24;101068.00;;;21.50
22828;BMP180;11580;52.562;13.418;2023-06-14T06:18:51;101069.00;;;21.40
22828;BMP180;11580;52.562;13.418;2023-06-14T06:21:19;101069.00;;;21.40
22828;BMP180;11580;52.562;13.418;2023-06-14T06:23:46;101065.00;;;21.30
22828;BMP180;11580;52.562;13.418;2023-06-14T06:26:13;101063.00;;;21.30
22828;BMP180;11580;52.562;13.418;2023-06-14T06:28:41;101068.00;;;21.30
22828;BMP180;11580;52.562;13.418;2023-06-14T06:31:09;101067.00;;;21.20
22828;BMP180;11580;52.562;13.418;2023-06-14T06:33:37;101064.00;;;21.20
22828;BMP180;11580;52.562;13.418;2023-06-14T06:36:05;101070.00;;;21.20
22828;BMP180;11580;52.562;13.418;2023-06-14T06:38:32;101063.00;;;21.20
22828;BMP180;11580;52.562;13.418;2023-06-14T06:41:00;101058.00;;;21.20
22828;BMP180;11580;52.562;13.418;2023-06-14T06:43:27;101055.00;;;21.20
22828;BMP180;11580;52.562;13.418;2023-06-14T06:45:58;101065.00;;;21.30
22828;BMP180;11580;52.562;13.418;2023-06-14T06:48:25;101056.00;;;21.30
22828;BMP180;11580;52.562;13.418;2023-06-14T06:50:52;101068.00;;;21.40
22828;BMP180;11580;52.562;13.418;2023-06-14T06:53:19;101068.00;;;21.50
22828;BMP180;11580;52.562;13.418;2023-06-14T06:55:47;101068.00;;;21.60
22828;BMP180;11580;52.562;13.418;2023-06-14T06:58:14;101071.00;;;21.70
22828;BMP180;11580;52.562;13.418;2023-06-14T07:00:41;101069.00;;;21.90
22828;BMP180;11580;52.562;13.418;2023-06-14T07:03:11;101073.00;;;22.10
22828;BMP180;11580;52.562;13.418;2023-06-14T07:05:38;101081.00;;;22.20
22828;BMP180;11580;52.562;13.418;2023-06-14T07:08:05;101084.00;;;22.30
22828;BMP180;11580;52.562;13.418;2023-06-14T07:10:32;101092.00;;;22.50
22828;BMP180;11580;52.562;13.418;2023-06-14T07:13:00;101110.00;;;22.60
22828;BMP180;11580;52.562;13.418;2023-06-14T07:15:27;101110.00;;;22.60
22828;BMP180;11580;52.562;13.418;2023-06-14T07:17:54;101104.00;;;22.70
22828;BMP180;11580;52.562;13.418;2023-06-14T07:20:26;101112.00;;;22.70
22828;BMP180;11580;52.562;13.418;2023-06-14T07:22:54;101108.00;;;22.70
22828;BMP180;11580;52.562;13.418;2023-06-14T07:25:21;101077.00;;;22.80
22828;BMP180;11580;52.562;13.418;2023-06-14T07:27:48;101106.00;;;22.80
22828;BMP180;11580;52.562;13.418;2023-06-14T07:30:16;101108.00;;;22.90
22828;BMP180;11580;52.562;13.418;2023-06-14T07:32:43;101114.00;;;22.90
22828;BMP180;11580;52.562;13.418;2023-06-14T07:35:10;101109.00;;;23.00
22828;BMP180;11580;52.562;13.418;2023-06-14T07:37:39;101111.00;;;23.00
22828;BMP180;11580;52.562;13.418;2023-06-14T07:40:07;101108.00;;;23.10
22828;BMP180;11580;52.562;13.418;2023-06-14T07:42:36;101111.00;;;23.20
22828;BMP180;11580;52.562;13.418;2023-06-14T07:45:04;101111.00;;;23.40
22828;BMP180;11580;52.562;13.418;2023-06-14T07:47:32;101127.00;;;23.60
22828;BMP180;11580;52.562;13.418;2023-06-14T07:49:59;101118.00;;;23.80
22828;BMP180;11580;52.562;13.418;2023-06-14T07:52:26;101128.00;;;24.00
22828;BMP180;11580;52.562;13.418;2023-06-14T07:54:55;101114.00;;;24.20
22828;BMP180;11580;52.562;13.418;2023-06-14T07:57:22;101118.00;;;24.40
22828;BMP180;11580;52.562;13.418;2023-06-14T07:59:50;101112.00;;;24.50
22828;BMP180;11580;52.562;13.418;2023-06-14T08:02:17;101113.00;;;24.60
22828;BMP180;11580;52.562;13.418;2023-06-14T08:04:44;101120.00;;;24.70
22828;BMP180;11580;52.562;13.418;2023-06-14T08:07:12;101104.00;;;24.80
22828;BMP180;11580;52.562;13.418;2023-06-14T08:09:39;101103.00;;;24.90
22828;BMP180;11580;52.562;13.418;2023-06-14T08:12:09;101111.00;;;25.00
22828;BMP180;11580;52.562;13.418;2023-06-14T08:14:36;101110.00;;;25.10
22828;BMP180;11580;52.562;13.418;2023-06-14T08:17:04;101113.00;;;25.10
22828;BMP180;11580;52.562;13.418;2023-06-14T08:19:31;101106.00;;;25.20
22828;BMP180;11580;52.562;13.418;2023-06-14T08:21:58;101122.00;;;25.30
22828;BMP180;11580;52.562;13.418;2023-06-14T08:24:26;101108.00;;;25.30
22828;BMP180;11580;52.562;13.418;2023-06-14T08:26:53;101104.00;;;25.20
22828;BMP180;11580;52.562;13.418;2023-06-14T08:29:23;101110.00;;;25.20
22828;BMP180;11580;52.562;13.418;2023-06-14T08:31:50;101101.00;;;25.00
22828;BMP180;11580;52.562;13.418;2023-06-14T08:34:17;101104.00;;;25.00
22828;BMP180;11580;52.562;13.418;2023-06-14T08:36:44;101101.00;;;24.90
22828;BMP180;11580;52.562;13.418;2023-06-14T08:39:12;101093.00;;;25.00
22828;BMP180;11580;52.562;13.418;2023-06-14T08:41:39;101110.00;;;25.10
22828;BMP180;11580;52.562;13.418;2023-06-14T08:44:06;101104.00;;;25.20
22828;BMP180;11580;52.562;13.418;2023-06-14T08:46:37;101100.00;;;25.30
22828;BMP180;11580;52.562;13.418;2023-06-14T08:49:04;101102.00;;;25.40
22828;BMP180;11580;52.562;13.418;2023-06-14T08:51:35;101104.00;;;25.50
22828;BMP180;11580;52.562;13.418;2023-06-14T08:54:03;101108.00;;;25.60
22828;BMP180;11580;52.562;13.418;2023-06-14T08:56:31;101109.00;;;25.70
22828;BMP180;11580;52.562;13.418;2023-06-14T08:59:00;101105.00;;;25.80
22828;BMP180;11580;52.562;13.418;2023-06-14T09:01:33;101110.00;;;26.00
22828;BMP180;11580;52.562;13.418;2023-06-14T09:04:03;101118.00;;;26.10
22828;BMP180;11580;52.562;13.418;2023-06-14T09:06:31;101111.00;;;26.10
22828;BMP180;11580;52.562;13.418;2023-06-14T09:08:58;101125.00;;;26.10
22828;BMP180;11580;52.562;13.418;2023-06-14T09:11:27;101114.00;;;26.10
22828;BMP180;11580;52.562;13.418;2023-06-14T09:13:54;101115.00;;;26.20
22828;BMP180;11580;52.562;13.418;2023-06-14T09:16:21;101111.00;;;26.20
22828;BMP180;11580;52.562;13.418;2023-06-14T09:18:48;101115.00;;;26.30
22828;BMP180;11580;52.562;13.418;2023-06-14T09:21:17;101126.00;;;26.30
22828;BMP180;11580;52.562;13.418;2023-06-14T09:23:46;101126.00;;;26.40
22828;BMP180;11580;52.562;13.418;2023-06-14T09:26:16;101114.00;;;26.40
22828;BMP180;11580;52.562;13.418;2023-06-14T09:28:47;101120.00;;;26.50
22828;BMP180;11580;52.562;13.418;2023-06-14T09:31:16;101129.00;;;26.60
22828;BMP180;11580;52.562;13.418;2023-06-14T09:33:45;101124.00;;;26.60
22828;BMP180;11580;52.562;13.418;2023-06-14T09:36:17;101133.00;;;26.60
22828;BMP180;11580;52.562;13.418;2023-06-14T09:38:52;101120.00;;;26.60
22828;BMP180;11580;52.562;13.418;2023-06-14T09:41:20;101119.00;;;26.70
22828;BMP180;11580;52.562;13.418;2023-06-14T09:43:48;101134.00;;;26.80
22828;BMP180;11580;52.562;13.418;2023-06-14T09:46:16;101119.00;;;26.90
22828;BMP180;11580;52.562;13.418;2023-06-14T09:48:43;101121.00;;;27.00
22828;BMP180;11580;52.562;13.418;2023-06-14T09:51:13;101125.00;;;27.10
22828;BMP180;11580;52.562;13.418;2023-06-14T09:53:46;101123.00;;;27.20
22828;BMP180;11580;52.562;13.418;2023-06-14T09:56:20;101137.00;;;27.40
22828;BMP180;11580;52.562;13.418;2023-06-14T09:58:54;101124.00;;;27.40
22828;BMP180;11580;52.562;13.418;2023-06-14T10:01:24;101119.00;;;27.30
22828;BMP180;11580;52.562;13.418;2023-06-14T10:03:58;101136.00;;;27.30
22828;BMP180;11580;52.562;13.418;2023-06-14T10:06:29;101137.00;;;27.20
22828;BMP180;11580;52.562;13.418;2023-06-14T10:08:59;101123.00;;;27.10
22828;BMP180;11580;52.562;13.418;2023-06-14T10:11:28;101126.00;;;27.00
22828;BMP180;11580;52.562;13.418;2023-06-14T10:13:56;101122.00;;;27.00
22828;BMP180;11580;52.562;13.418;2023-06-14T10:16:31;101132.00;;;27.10
22828;BMP180;11580;52.562;13.418;2023-06-14T10:19:06;101129.00;;;27.20
22828;BMP180;11580;52.562;13.418;2023-06-14T10:21:48;101126.00;;;27.20
22828;BMP180;11580;52.562;13.418;2023-06-14T10:24:26;101129.00;;;27.30
22828;BMP180;11580;52.562;13.418;2023-06-14T10:26:58;101123.00;;;27.30
22828;BMP180;11580;52.562;13.418;2023-06-14T10:29:25;101127.00;;;27.40
22828;BMP180;11580;52.562;13.418;2023-06-14T10:31:59;101125.00;;;27.40
22828;BMP180;11580;52.562;13.418;2023-06-14T10:34:28;101119.00;;;27.50
22828;BMP180;11580;52.562;13.418;2023-06-14T10:37:02;101112.00;;;27.50
22828;BMP180;11580;52.562;13.418;2023-06-14T10:39:31;101120.00;;;27.60
22828;BMP180;11580;52.562;13.418;2023-06-14T10:42:01;101112.00;;;27.60
22828;BMP180;11580;52.562;13.418;2023-06-14T10:44:44;101100.00;;;27.60
22828;BMP180;11580;52.562;13.418;2023-06-14T10:47:27;101100.00;;;27.60
22828;BMP180;11580;52.562;13.418;2023-06-14T10:49:57;101107.00;;;27.60
22828;BMP180;11580;52.562;13.418;2023-06-14T10:52:29;101103.00;;;27.60
22828;BMP180;11580;52.562;13.418;2023-06-14T10:55:09;101093.00;;;27.50
22828;BMP180;11580;52.562;13.418;2023-06-14T10:57:40;101101.00;;;27.50
22828;BMP180;11580;52.562;13.418;2023-06-14T11:00:10;101095.00;;;27.50
22828;BMP180;11580;52.562;13.418;2023-06-14T11:03:24;101081.00;;;27.50
22828;BMP180;11580;52.562;13.418;2023-06-14T11:05:57;101088.00;;;27.40
22828;BMP180;11580;52.562;13.418;2023-06-14T11:09:34;101088.00;;;27.30
22828;BMP180;11580;52.562;13.418;2023-06-14T11:12:10;101089.00;;;27.30
22828;BMP180;11580;52.562;13.418;2023-06-14T11:14:39;101086.00;;;27.30
22828;BMP180;11580;52.562;13.418;2023-06-14T11:17:06;101083.00;;;27.40
22828;BMP180;11580;52.562;13.418;2023-06-14T11:19:34;101077.00;;;27.40
22828;BMP180;11580;52.562;13.418;2023-06-14T11:22:02;101077.00;;;27.40
22828;BMP180;11580;52.562;13.418;2023-06-14T11:24:29;101068.00;;;27.50
22828;BMP180;11580;52.562;13.418;2023-06-14T11:26:56;101073.00;;;27.50
22828;BMP180;11580;52.562;13.418;2023-06-14T11:29:25;101040.00;;;27.60
22828;BMP180;11580;52.562;13.418;2023-06-14T11:31:52;101069.00;;;27.70
22828;BMP180;11580;52.562;13.418;2023-06-14T11:34:19;101068.00;;;27.70
22828;BMP180;11580;52.562;13.418;2023-06-14T11:36:47;101055.00;;;27.80
22828;BMP180;11580;52.562;13.418;2023-06-14T11:39:14;101052.00;;;27.90
22828;BMP180;11580;52.562;13.418;2023-06-14T11:41:44;101039.00;;;28.10
22828;BMP180;11580;52.562;13.418;2023-06-14T11:44:12;101057.00;;;28.20
22828;BMP180;11580;52.562;13.418;2023-06-14T11:46:41;101055.00;;;28.40
22828;BMP180;11580;52.562;13.418;2023-06-14T11:49:08;101050.00;;;28.50
22828;BMP180;11580;52.562;13.418;2023-06-14T11:51:36;101047.00;;;28.60
22828;BMP180;11580;52.562;13.418;2023-06-14T11:54:06;101042.00;;;28.70
22828;BMP180;11580;52.562;13.418;2023-06-14T11:56:34;101042.00;;;28.70
22828;BMP180;11580;52.562;13.418;2023-06-14T11:59:03;101040.00;;;28.70
22828;BMP180;11580;52.562;13.418;2023-06-14T12:01:31;101042.00;;;28.60
22828;BMP180;11580;52.562;13.418;2023-06-14T12:04:00;101031.00;;;28.40
22828;BMP180;11580;52.562;13.418;2023-06-14T12:06:30;101026.00;;;28.30
22828;BMP180;11580;52.562;13.418;2023-06-14T12:09:06;101034.00;;;28.20
22828;BMP180;11580;52.562;13.418;2023-06-14T12:11:38;101020.00;;;28.10
22828;BMP180;11580;52.562;13.418;2023-06-14T12:14:07;101022.00;;;28.00
22828;BMP180;11580;52.562;13.418;2023-06-14T12:16:38;101020.00;;;27.80
22828;BMP180;11580;52.562;13.418;2023-06-14T12:19:13;101016.00;;;27.70
22828;BMP180;11580;52.562;13.418;2023-06-14T12:21:41;101014.00;;;27.60
22828;BMP180;11580;52.562;13.418;2023-06-14T12:24:09;101011.00;;;27.50
22828;BMP180;11580;52.562;13.418;2023-06-14T12:26:39;101001.00;;;27.40
22828;BMP180;11580;52.562;13.418;2023-06-14T12:29:07;101009.00;;;27.30
22828;BMP180;11580;52.562;13.418;2023-06-14T12:31:34;100997.00;;;27.20
22828;BMP180;11580;52.562;13.418;2023-06-14T12:34:02;101002.00;;;27.20
22828;BMP180;11580;52.562;13.418;2023-06-14T12:36:30;100995.00;;;27.20
22828;BMP180;11580;52.562;13.418;2023-06-14T12:38:58;100996.00;;;27.20
22828;BMP180;11580;52.562;13.418;2023-06-14T12:41:25;100987.00;;;27.20
22828;BMP180;11580;52.562;13.418;2023-06-14T12:43:53;100993.00;;;27.30
22828;BMP180;11580;52.562;13.418;2023-06-14T12:46:20;100990.00;;;27.40
22828;BMP180;11580;52.562;13.418;2023-06-14T12:48:47;101000.00;;;27.50
22828;BMP180;11580;52.562;13.418;2023-06-14T12:51:15;100993.00;;;27.60
22828;BMP180;11580;52.562;13.418;2023-06-14T12:53:43;100992.00;;;27.60
22828;BMP180;11580;52.562;13.418;2023-06-14T12:56:11;100991.00;;;27.60
22828;BMP180;11580;52.562;13.418;2023-06-14T12:58:38;100981.00;;;27.60
22828;BMP180;11580;52.562;13.418;2023-06-14T13:01:05;100977.00;;;27.70
22828;BMP180;11580;52.562;13.418;2023-06-14T13:03:32;100978.00;;;27.80
22828;BMP180;11580;52.562;13.418;2023-06-14T13:06:00;100976.00;;;27.80
22828;BMP180;11580;52.562;13.418;2023-06-14T13:08:27;100969.00;;;28.00
22828;BMP180;11580;52.562;13.418;2023-06-14T13:10:56;100970.00;;;28.10
22828;BMP180;11580;52.562;13.418;2023-06-14T13:13:23;100978.00;;;28.10
22828;BMP180;11580;52.562;13.418;2023-06-14T13:15:50;100977.00;;;28.10
22828;BMP180;11580;52.562;13.418;2023-06-14T13:18:18;100964.00;;;28.10
22828;BMP180;11580;52.562;13.418;2023-06-14T13:20:46;100963.00;;;28.10
22828;BMP180;11580;52.562;13.418;2023-06-14T13:23:15;100971.00;;;28.20
22828;BMP180;11580;52.562;13.418;2023-06-14T13:25:42;100977.00;;;28.30
22828;BMP180;11580;52.562;13.418;2023-06-14T13:28:11;100973.00;;;28.30
22828;BMP180;11580;52.562;13.418;2023-06-14T13:30:38;100952.00;;;28.30
22828;BMP180;11580;52.562;13.418;2023-06-14T13:33:05;100967.00;;;28.30
22828;BMP180;11580;52.562;13.418;2023-06-14T13:35:32;100954.00;;;28.30
22828;BMP180;11580;52.562;13.418;2023-06-14T13:38:00;100948.00;;;28.30
22828;BMP180;11580;52.562;13.418;2023-06-14T13:40:27;100952.00;;;28.30
22828;BMP180;11580;52.562;13.418;2023-06-14T13:42:55;100953.00;;;28.30
22828;BMP180;11580;52.562;13.418;2023-06-14T13:45:23;100949.00;;;28.30
22828;BMP180;11580;52.562;13.418;2023-06-14T13:47:50;100940.00;;;28.30
22828;BMP180;11580;52.562;13.418;2023-06-14T13:50:17;100942.00;;;28.40
22828;BMP180;11580;52.562;13.418;2023-06-14T13:52:45;100951.00;;;28.50
22828;BMP180;11580;52.562;13.418;2023-06-14T13:55:13;100946.00;;;28.60